Portada
METAR-TAF:

METAR-TAF

Aeropuertos :

Aeropuerto de Hihifo

Wallis, Francia

latitud: 13-14S, longitud: 176-10W, altitud: 23 m

METAR: falta

Hora: 17:40 (05:40 UTC)

Pronóstico

El informe se hizo hace 40 minutos, a las 05:00 UTC
Pronóstico válido del 19 a las 06 UTC al 20 a las 06 UTC
Viento 6 kt del sur-sureste
Visibilidad 10 km o más
Escasas nubes a una altura de 2300 ft
Probabilidad 30% :
Temporalmente
del 19 a las 18 UTC al 19 a las 24 UTC
chaparrones de lluvia

TAF: NLWW 190500Z 1906/2006 15006KT 9999 FEW023 PROB30 TEMPO 1918/1924 SHRA

Observaciones y pronósticos meteorológicos de más de 4000 aeropuertos (mensajes METAR y TAF).

Los puntos amarillos y rojos representan las estaciones disponibles.

Ponga el ratón en el punto deseado para ver el nombre de la estación.

Haga clic para ver las observaciones y los pronósticos meteorológicos.

Para cambiar el mapa : haga clic en los botones verdes con una cruz de color negro para hacer un zoom, en el botón verde con un guión para alejar o en las flechas verdes para mapas adyacentes.


METAR-TAF: